sensor_id;sensor_type;location;lat;lon;timestamp;P1;durP1;ratioP1;P2;durP2;ratioP2
10801;SDS011;5453;50.852;7.102;2022-08-25T00:02:10;2.35;;;2.00;;
10801;SDS011;5453;50.852;7.102;2022-08-25T00:04:43;4.68;;;1.92;;
10801;SDS011;5453;50.852;7.102;2022-08-25T00:07:17;2.00;;;1.60;;
10801;SDS011;5453;50.852;7.102;2022-08-25T00:09:50;1.85;;;1.63;;
10801;SDS011;5453;50.852;7.102;2022-08-25T00:12:24;1.55;;;1.45;;
10801;SDS011;5453;50.852;7.102;2022-08-25T00:14:58;1.65;;;1.50;;
10801;SDS011;5453;50.852;7.102;2022-08-25T00:17:30;2.38;;;1.77;;
10801;SDS011;5453;50.852;7.102;2022-08-25T00:20:06;2.33;;;1.90;;
10801;SDS011;5453;50.852;7.102;2022-08-25T00:22:42;1.90;;;1.33;;
10801;SDS011;5453;50.852;7.102;2022-08-25T00:25:16;2.35;;;1.70;;
10801;SDS011;5453;50.852;7.102;2022-08-25T00:27:50;2.30;;;1.70;;
10801;SDS011;5453;50.852;7.102;2022-08-25T00:30:23;1.98;;;1.60;;
10801;SDS011;5453;50.852;7.102;2022-08-25T00:32:58;2.58;;;1.58;;
10801;SDS011;5453;50.852;7.102;2022-08-25T00:35:32;1.92;;;1.73;;
10801;SDS011;5453;50.852;7.102;2022-08-25T00:38:08;1.83;;;1.52;;
10801;SDS011;5453;50.852;7.102;2022-08-25T00:40:41;1.75;;;1.50;;
10801;SDS011;5453;50.852;7.102;2022-08-25T00:45:49;2.72;;;1.83;;
10801;SDS011;5453;50.852;7.102;2022-08-25T00:48:22;1.98;;;1.70;;
10801;SDS011;5453;50.852;7.102;2022-08-25T00:50:55;2.63;;;1.80;;
10801;SDS011;5453;50.852;7.102;2022-08-25T00:53:30;3.00;;;1.67;;
10801;SDS011;5453;50.852;7.102;2022-08-25T00:56:04;2.47;;;1.90;;
10801;SDS011;5453;50.852;7.102;2022-08-25T00:58:40;2.33;;;1.80;;
10801;SDS011;5453;50.852;7.102;2022-08-25T01:01:15;1.70;;;1.60;;
10801;SDS011;5453;50.852;7.102;2022-08-25T01:03:47;2.42;;;1.80;;
10801;SDS011;5453;50.852;7.102;2022-08-25T01:06:20;3.13;;;1.80;;
10801;SDS011;5453;50.852;7.102;2022-08-25T01:11:28;3.03;;;1.90;;
10801;SDS011;5453;50.852;7.102;2022-08-25T01:14:01;3.00;;;1.75;;
10801;SDS011;5453;50.852;7.102;2022-08-25T01:16:36;2.92;;;1.95;;
10801;SDS011;5453;50.852;7.102;2022-08-25T01:19:12;2.40;;;1.80;;
10801;SDS011;5453;50.852;7.102;2022-08-25T01:21:48;2.88;;;1.67;;
10801;SDS011;5453;50.852;7.102;2022-08-25T01:24:28;2.30;;;2.10;;
10801;SDS011;5453;50.852;7.102;2022-08-25T01:27:08;2.10;;;1.77;;
10801;SDS011;5453;50.852;7.102;2022-08-25T01:29:41;2.08;;;1.85;;
10801;SDS011;5453;50.852;7.102;2022-08-25T01:32:16;2.28;;;2.08;;
10801;SDS011;5453;50.852;7.102;2022-08-25T01:34:49;2.72;;;1.88;;
10801;SDS011;5453;50.852;7.102;2022-08-25T01:37:23;2.22;;;1.85;;
10801;SDS011;5453;50.852;7.102;2022-08-25T01:39:55;2.42;;;1.85;;
10801;SDS011;5453;50.852;7.102;2022-08-25T01:42:32;2.33;;;1.98;;
10801;SDS011;5453;50.852;7.102;2022-08-25T01:45:21;2.28;;;1.80;;
10801;SDS011;5453;50.852;7.102;2022-08-25T01:47:56;2.72;;;1.80;;
10801;SDS011;5453;50.852;7.102;2022-08-25T01:50:28;1.98;;;1.65;;
10801;SDS011;5453;50.852;7.102;2022-08-25T01:53:03;2.83;;;1.70;;
10801;SDS011;5453;50.852;7.102;2022-08-25T01:55:44;2.28;;;1.90;;
10801;SDS011;5453;50.852;7.102;2022-08-25T01:58:32;2.90;;;2.00;;
10801;SDS011;5453;50.852;7.102;2022-08-25T02:01:08;2.15;;;1.77;;
10801;SDS011;5453;50.852;7.102;2022-08-25T02:03:47;2.08;;;1.85;;
10801;SDS011;5453;50.852;7.102;2022-08-25T02:06:25;2.03;;;1.75;;
10801;SDS011;5453;50.852;7.102;2022-08-25T02:09:05;3.88;;;2.00;;
10801;SDS011;5453;50.852;7.102;2022-08-25T02:11:40;1.95;;;1.63;;
10801;SDS011;5453;50.852;7.102;2022-08-25T02:14:16;3.60;;;1.88;;
10801;SDS011;5453;50.852;7.102;2022-08-25T02:16:50;2.63;;;1.80;;
10801;SDS011;5453;50.852;7.102;2022-08-25T02:19:26;2.30;;;1.70;;
10801;SDS011;5453;50.852;7.102;2022-08-25T02:22:00;2.58;;;2.08;;
10801;SDS011;5453;50.852;7.102;2022-08-25T02:24:34;2.15;;;1.50;;
10801;SDS011;5453;50.852;7.102;2022-08-25T02:27:07;2.60;;;1.90;;
10801;SDS011;5453;50.852;7.102;2022-08-25T02:29:39;2.00;;;1.80;;
10801;SDS011;5453;50.852;7.102;2022-08-25T02:32:12;2.67;;;1.95;;
10801;SDS011;5453;50.852;7.102;2022-08-25T02:34:44;1.60;;;1.50;;
10801;SDS011;5453;50.852;7.102;2022-08-25T02:37:17;2.72;;;1.83;;
10801;SDS011;5453;50.852;7.102;2022-08-25T02:39:53;2.83;;;2.00;;
10801;SDS011;5453;50.852;7.102;2022-08-25T02:42:26;2.00;;;1.60;;
10801;SDS011;5453;50.852;7.102;2022-08-25T02:45:01;2.80;;;1.70;;
10801;SDS011;5453;50.852;7.102;2022-08-25T02:47:36;2.63;;;1.73;;
10801;SDS011;5453;50.852;7.102;2022-08-25T02:50:09;2.05;;;1.80;;
10801;SDS011;5453;50.852;7.102;2022-08-25T02:52:45;1.77;;;1.60;;
10801;SDS011;5453;50.852;7.102;2022-08-25T02:55:24;2.47;;;1.95;;
10801;SDS011;5453;50.852;7.102;2022-08-25T03:00:32;5.43;;;2.05;;
10801;SDS011;5453;50.852;7.102;2022-08-25T03:03:05;2.90;;;2.15;;
10801;SDS011;5453;50.852;7.102;2022-08-25T03:05:38;1.98;;;1.70;;
10801;SDS011;5453;50.852;7.102;2022-08-25T03:08:10;3.63;;;2.00;;
10801;SDS011;5453;50.852;7.102;2022-08-25T03:10:45;2.05;;;1.67;;
10801;SDS011;5453;50.852;7.102;2022-08-25T03:13:19;2.40;;;1.83;;
10801;SDS011;5453;50.852;7.102;2022-08-25T03:15:52;3.55;;;2.00;;
10801;SDS011;5453;50.852;7.102;2022-08-25T03:18:26;2.20;;;1.60;;
10801;SDS011;5453;50.852;7.102;2022-08-25T03:20:59;3.13;;;1.92;;
10801;SDS011;5453;50.852;7.102;2022-08-25T03:23:32;2.10;;;1.60;;
10801;SDS011;5453;50.852;7.102;2022-08-25T03:26:06;1.70;;;1.50;;
10801;SDS011;5453;50.852;7.102;2022-08-25T03:28:57;3.00;;;1.80;;
10801;SDS011;5453;50.852;7.102;2022-08-25T03:31:34;2.53;;;2.00;;
10801;SDS011;5453;50.852;7.102;2022-08-25T03:34:09;2.40;;;2.20;;
10801;SDS011;5453;50.852;7.102;2022-08-25T03:36:42;2.42;;;1.73;;
10801;SDS011;5453;50.852;7.102;2022-08-25T03:39:17;2.15;;;1.65;;
10801;SDS011;5453;50.852;7.102;2022-08-25T03:41:53;2.30;;;1.55;;
10801;SDS011;5453;50.852;7.102;2022-08-25T03:44:25;2.90;;;1.98;;
10801;SDS011;5453;50.852;7.102;2022-08-25T03:46:58;2.58;;;1.70;;
10801;SDS011;5453;50.852;7.102;2022-08-25T03:49:30;2.90;;;2.00;;
10801;SDS011;5453;50.852;7.102;2022-08-25T03:52:03;2.38;;;1.88;;
10801;SDS011;5453;50.852;7.102;2022-08-25T03:54:36;2.97;;;1.80;;
10801;SDS011;5453;50.852;7.102;2022-08-25T03:57:11;3.00;;;2.22;;
10801;SDS011;5453;50.852;7.102;2022-08-25T03:59:43;2.67;;;1.85;;
10801;SDS011;5453;50.852;7.102;2022-08-25T04:02:17;2.05;;;1.85;;
10801;SDS011;5453;50.852;7.102;2022-08-25T04:04:51;2.67;;;2.00;;
10801;SDS011;5453;50.852;7.102;2022-08-25T04:07:24;2.80;;;2.03;;
10801;SDS011;5453;50.852;7.102;2022-08-25T04:09:57;3.03;;;2.00;;
10801;SDS011;5453;50.852;7.102;2022-08-25T04:12:31;2.65;;;2.22;;
10801;SDS011;5453;50.852;7.102;2022-08-25T04:15:04;2.60;;;1.77;;
10801;SDS011;5453;50.852;7.102;2022-08-25T04:17:39;3.17;;;2.15;;
10801;SDS011;5453;50.852;7.102;2022-08-25T04:20:12;4.28;;;2.58;;
10801;SDS011;5453;50.852;7.102;2022-08-25T04:22:45;3.83;;;2.10;;
10801;SDS011;5453;50.852;7.102;2022-08-25T04:25:20;2.53;;;2.00;;
10801;SDS011;5453;50.852;7.102;2022-08-25T04:27:54;3.45;;;2.10;;
10801;SDS011;5453;50.852;7.102;2022-08-25T04:30:28;4.97;;;2.55;;
10801;SDS011;5453;50.852;7.102;2022-08-25T04:33:01;5.68;;;2.55;;
10801;SDS011;5453;50.852;7.102;2022-08-25T04:35:34;3.97;;;2.25;;
10801;SDS011;5453;50.852;7.102;2022-08-25T04:38:07;2.78;;;2.13;;
10801;SDS011;5453;50.852;7.102;2022-08-25T04:40:39;3.00;;;2.25;;
10801;SDS011;5453;50.852;7.102;2022-08-25T04:43:14;6.50;;;2.33;;
10801;SDS011;5453;50.852;7.102;2022-08-25T04:45:47;3.65;;;2.30;;
10801;SDS011;5453;50.852;7.102;2022-08-25T04:48:23;2.67;;;2.28;;
10801;SDS011;5453;50.852;7.102;2022-08-25T04:50:57;3.00;;;2.28;;
10801;SDS011;5453;50.852;7.102;2022-08-25T04:53:36;2.55;;;1.95;;
10801;SDS011;5453;50.852;7.102;2022-08-25T04:56:11;3.03;;;2.20;;
10801;SDS011;5453;50.852;7.102;2022-08-25T04:58:47;4.85;;;2.20;;
10801;SDS011;5453;50.852;7.102;2022-08-25T05:03:58;3.03;;;2.17;;
10801;SDS011;5453;50.852;7.102;2022-08-25T05:06:34;2.95;;;2.58;;
10801;SDS011;5453;50.852;7.102;2022-08-25T05:09:07;3.75;;;2.42;;
10801;SDS011;5453;50.852;7.102;2022-08-25T05:11:39;2.92;;;2.42;;
10801;SDS011;5453;50.852;7.102;2022-08-25T05:14:13;3.22;;;2.08;;
10801;SDS011;5453;50.852;7.102;2022-08-25T05:16:51;2.80;;;2.00;;
10801;SDS011;5453;50.852;7.102;2022-08-25T05:19:24;2.60;;;2.03;;
10801;SDS011;5453;50.852;7.102;2022-08-25T05:21:57;4.05;;;2.17;;
10801;SDS011;5453;50.852;7.102;2022-08-25T05:24:30;3.63;;;2.20;;
10801;SDS011;5453;50.852;7.102;2022-08-25T05:27:03;3.13;;;2.03;;
10801;SDS011;5453;50.852;7.102;2022-08-25T05:29:38;3.00;;;2.03;;
10801;SDS011;5453;50.852;7.102;2022-08-25T05:32:11;3.28;;;2.60;;
10801;SDS011;5453;50.852;7.102;2022-08-25T05:34:44;3.35;;;2.47;;
10801;SDS011;5453;50.852;7.102;2022-08-25T05:37:18;3.75;;;2.42;;
10801;SDS011;5453;50.852;7.102;2022-08-25T05:39:51;5.07;;;3.33;;
10801;SDS011;5453;50.852;7.102;2022-08-25T05:42:24;4.93;;;2.72;;
10801;SDS011;5453;50.852;7.102;2022-08-25T05:44:59;4.18;;;2.72;;
10801;SDS011;5453;50.852;7.102;2022-08-25T05:47:32;4.90;;;3.00;;
10801;SDS011;5453;50.852;7.102;2022-08-25T05:50:05;5.70;;;3.03;;
10801;SDS011;5453;50.852;7.102;2022-08-25T05:52:41;3.95;;;2.65;;
10801;SDS011;5453;50.852;7.102;2022-08-25T05:55:13;3.72;;;2.72;;
10801;SDS011;5453;50.852;7.102;2022-08-25T05:57:46;4.70;;;2.70;;
10801;SDS011;5453;50.852;7.102;2022-08-25T06:00:22;4.55;;;2.97;;
10801;SDS011;5453;50.852;7.102;2022-08-25T06:02:54;4.00;;;2.70;;
10801;SDS011;5453;50.852;7.102;2022-08-25T06:05:27;4.75;;;2.60;;
10801;SDS011;5453;50.852;7.102;2022-08-25T06:08:02;6.40;;;2.75;;
10801;SDS011;5453;50.852;7.102;2022-08-25T06:10:36;3.20;;;2.65;;
10801;SDS011;5453;50.852;7.102;2022-08-25T06:13:09;4.55;;;2.70;;
10801;SDS011;5453;50.852;7.102;2022-08-25T06:15:44;4.68;;;2.67;;
10801;SDS011;5453;50.852;7.102;2022-08-25T06:18:17;5.18;;;3.20;;
10801;SDS011;5453;50.852;7.102;2022-08-25T06:20:49;5.85;;;2.75;;
10801;SDS011;5453;50.852;7.102;2022-08-25T06:23:22;4.13;;;2.70;;
10801;SDS011;5453;50.852;7.102;2022-08-25T06:25:54;3.38;;;2.63;;
10801;SDS011;5453;50.852;7.102;2022-08-25T06:28:28;9.27;;;2.85;;
10801;SDS011;5453;50.852;7.102;2022-08-25T06:31:05;4.88;;;3.00;;
10801;SDS011;5453;50.852;7.102;2022-08-25T06:33:38;5.90;;;2.58;;
10801;SDS011;5453;50.852;7.102;2022-08-25T06:38:44;4.63;;;2.58;;
10801;SDS011;5453;50.852;7.102;2022-08-25T06:41:17;4.22;;;2.30;;
10801;SDS011;5453;50.852;7.102;2022-08-25T06:43:56;4.28;;;2.53;;
10801;SDS011;5453;50.852;7.102;2022-08-25T06:46:33;4.95;;;2.42;;
10801;SDS011;5453;50.852;7.102;2022-08-25T06:49:06;5.03;;;2.45;;
10801;SDS011;5453;50.852;7.102;2022-08-25T06:51:39;4.28;;;2.70;;
10801;SDS011;5453;50.852;7.102;2022-08-25T06:54:13;5.68;;;2.83;;
10801;SDS011;5453;50.852;7.102;2022-08-25T06:56:47;4.57;;;3.20;;
10801;SDS011;5453;50.852;7.102;2022-08-25T06:59:23;7.00;;;2.90;;
10801;SDS011;5453;50.852;7.102;2022-08-25T07:01:59;5.82;;;2.78;;
10801;SDS011;5453;50.852;7.102;2022-08-25T07:04:32;5.22;;;2.92;;
10801;SDS011;5453;50.852;7.102;2022-08-25T07:07:07;5.63;;;3.08;;
10801;SDS011;5453;50.852;7.102;2022-08-25T07:09:40;5.75;;;3.20;;
10801;SDS011;5453;50.852;7.102;2022-08-25T07:12:12;5.78;;;2.90;;
10801;SDS011;5453;50.852;7.102;2022-08-25T07:14:48;4.75;;;3.28;;
10801;SDS011;5453;50.852;7.102;2022-08-25T07:17:22;5.00;;;2.85;;
10801;SDS011;5453;50.852;7.102;2022-08-25T07:19:56;6.93;;;2.80;;
10801;SDS011;5453;50.852;7.102;2022-08-25T07:22:29;5.13;;;3.05;;
10801;SDS011;5453;50.852;7.102;2022-08-25T07:25:02;5.97;;;3.05;;
10801;SDS011;5453;50.852;7.102;2022-08-25T07:27:40;4.00;;;2.85;;
10801;SDS011;5453;50.852;7.102;2022-08-25T07:30:13;4.80;;;3.00;;
10801;SDS011;5453;50.852;7.102;2022-08-25T07:32:50;4.25;;;3.05;;
10801;SDS011;5453;50.852;7.102;2022-08-25T07:35:24;4.43;;;2.78;;
10801;SDS011;5453;50.852;7.102;2022-08-25T07:37:57;6.88;;;3.17;;
10801;SDS011;5453;50.852;7.102;2022-08-25T07:40:31;4.88;;;3.10;;
10801;SDS011;5453;50.852;7.102;2022-08-25T07:43:06;5.45;;;3.10;;
10801;SDS011;5453;50.852;7.102;2022-08-25T07:45:40;5.45;;;3.00;;
10801;SDS011;5453;50.852;7.102;2022-08-25T07:48:15;4.85;;;3.05;;
10801;SDS011;5453;50.852;7.102;2022-08-25T07:50:51;5.32;;;2.83;;
10801;SDS011;5453;50.852;7.102;2022-08-25T07:53:23;6.93;;;3.42;;
10801;SDS011;5453;50.852;7.102;2022-08-25T07:55:56;4.63;;;3.10;;
10801;SDS011;5453;50.852;7.102;2022-08-25T07:58:28;5.45;;;2.97;;
10801;SDS011;5453;50.852;7.102;2022-08-25T08:01:01;5.32;;;3.00;;
10801;SDS011;5453;50.852;7.102;2022-08-25T08:03:35;6.20;;;3.20;;
10801;SDS011;5453;50.852;7.102;2022-08-25T08:08:42;4.68;;;3.10;;
10801;SDS011;5453;50.852;7.102;2022-08-25T08:11:20;4.18;;;3.10;;
10801;SDS011;5453;50.852;7.102;2022-08-25T08:13:56;4.15;;;3.00;;
10801;SDS011;5453;50.852;7.102;2022-08-25T08:16:30;4.35;;;2.83;;
10801;SDS011;5453;50.852;7.102;2022-08-25T08:19:05;5.85;;;2.88;;
10801;SDS011;5453;50.852;7.102;2022-08-25T08:21:38;4.20;;;2.97;;
10801;SDS011;5453;50.852;7.102;2022-08-25T08:24:11;4.20;;;3.03;;
10801;SDS011;5453;50.852;7.102;2022-08-25T08:26:44;4.07;;;2.70;;
10801;SDS011;5453;50.852;7.102;2022-08-25T08:29:17;4.63;;;2.88;;
10801;SDS011;5453;50.852;7.102;2022-08-25T08:31:51;4.38;;;2.55;;
10801;SDS011;5453;50.852;7.102;2022-08-25T08:34:25;3.83;;;2.70;;
10801;SDS011;5453;50.852;7.102;2022-08-25T08:36:59;4.57;;;2.88;;
10801;SDS011;5453;50.852;7.102;2022-08-25T08:39:32;7.25;;;2.92;;
10801;SDS011;5453;50.852;7.102;2022-08-25T08:42:09;3.80;;;2.70;;
10801;SDS011;5453;50.852;7.102;2022-08-25T08:45:10;5.63;;;2.67;;
10801;SDS011;5453;50.852;7.102;2022-08-25T08:47:59;5.05;;;2.67;;
10801;SDS011;5453;50.852;7.102;2022-08-25T08:50:51;5.53;;;2.50;;
10801;SDS011;5453;50.852;7.102;2022-08-25T08:53:41;5.72;;;3.00;;
10801;SDS011;5453;50.852;7.102;2022-08-25T08:56:18;4.35;;;2.40;;
10801;SDS011;5453;50.852;7.102;2022-08-25T08:58:55;3.80;;;2.58;;
10801;SDS011;5453;50.852;7.102;2022-08-25T09:01:32;3.28;;;2.42;;
10801;SDS011;5453;50.852;7.102;2022-08-25T09:04:14;4.70;;;2.33;;
10801;SDS011;5453;50.852;7.102;2022-08-25T09:06:53;3.67;;;2.88;;
10801;SDS011;5453;50.852;7.102;2022-08-25T09:09:28;5.38;;;2.75;;
10801;SDS011;5453;50.852;7.102;2022-08-25T09:12:07;3.53;;;2.40;;
10801;SDS011;5453;50.852;7.102;2022-08-25T09:14:48;3.92;;;2.60;;
10801;SDS011;5453;50.852;7.102;2022-08-25T09:17:37;3.78;;;2.17;;
10801;SDS011;5453;50.852;7.102;2022-08-25T09:20:33;3.85;;;2.53;;
10801;SDS011;5453;50.852;7.102;2022-08-25T09:23:27;3.13;;;2.20;;
10801;SDS011;5453;50.852;7.102;2022-08-25T09:26:15;3.80;;;2.85;;
10801;SDS011;5453;50.852;7.102;2022-08-25T09:29:03;5.50;;;2.80;;
10801;SDS011;5453;50.852;7.102;2022-08-25T09:31:42;6.40;;;2.67;;
10801;SDS011;5453;50.852;7.102;2022-08-25T09:34:16;4.43;;;2.40;;
10801;SDS011;5453;50.852;7.102;2022-08-25T09:36:52;4.93;;;2.55;;
10801;SDS011;5453;50.852;7.102;2022-08-25T09:39:26;3.75;;;2.35;;
10801;SDS011;5453;50.852;7.102;2022-08-25T09:42:00;3.70;;;2.42;;
10801;SDS011;5453;50.852;7.102;2022-08-25T09:44:38;4.43;;;2.45;;
10801;SDS011;5453;50.852;7.102;2022-08-25T09:47:14;4.43;;;2.78;;
10801;SDS011;5453;50.852;7.102;2022-08-25T09:49:55;4.40;;;2.63;;
10801;SDS011;5453;50.852;7.102;2022-08-25T09:52:32;4.60;;;2.70;;
10801;SDS011;5453;50.852;7.102;2022-08-25T09:55:28;4.57;;;2.60;;
10801;SDS011;5453;50.852;7.102;2022-08-25T09:58:12;4.90;;;2.63;;
10801;SDS011;5453;50.852;7.102;2022-08-25T10:01:02;4.68;;;2.67;;
10801;SDS011;5453;50.852;7.102;2022-08-25T10:03:55;3.85;;;2.90;;
10801;SDS011;5453;50.852;7.102;2022-08-25T10:06:41;3.53;;;2.70;;
10801;SDS011;5453;50.852;7.102;2022-08-25T10:09:21;5.93;;;2.97;;
10801;SDS011;5453;50.852;7.102;2022-08-25T10:12:13;4.35;;;2.90;;
10801;SDS011;5453;50.852;7.102;2022-08-25T10:14:50;4.00;;;2.92;;
10801;SDS011;5453;50.852;7.102;2022-08-25T10:17:23;3.78;;;2.58;;
10801;SDS011;5453;50.852;7.102;2022-08-25T10:20:12;4.07;;;2.72;;
10801;SDS011;5453;50.852;7.102;2022-08-25T10:22:50;4.00;;;2.40;;
10801;SDS011;5453;50.852;7.102;2022-08-25T10:25:26;3.65;;;2.60;;
10801;SDS011;5453;50.852;7.102;2022-08-25T10:28:03;4.43;;;2.83;;
10801;SDS011;5453;50.852;7.102;2022-08-25T10:30:48;3.30;;;2.50;;
10801;SDS011;5453;50.852;7.102;2022-08-25T10:33:30;5.05;;;2.72;;
10801;SDS011;5453;50.852;7.102;2022-08-25T10:36:13;5.03;;;3.10;;
10801;SDS011;5453;50.852;7.102;2022-08-25T10:38:51;3.45;;;2.70;;
10801;SDS011;5453;50.852;7.102;2022-08-25T10:41:36;4.75;;;2.75;;
10801;SDS011;5453;50.852;7.102;2022-08-25T10:44:23;4.10;;;2.33;;
10801;SDS011;5453;50.852;7.102;2022-08-25T10:47:38;3.75;;;2.38;;
10801;SDS011;5453;50.852;7.102;2022-08-25T10:50:46;5.15;;;2.80;;
10801;SDS011;5453;50.852;7.102;2022-08-25T10:53:26;4.20;;;2.85;;
10801;SDS011;5453;50.852;7.102;2022-08-25T10:56:10;3.97;;;2.40;;
10801;SDS011;5453;50.852;7.102;2022-08-25T10:58:57;4.18;;;2.78;;
10801;SDS011;5453;50.852;7.102;2022-08-25T11:02:07;3.22;;;2.80;;
10801;SDS011;5453;50.852;7.102;2022-08-25T11:05:05;3.40;;;2.50;;
10801;SDS011;5453;50.852;7.102;2022-08-25T11:07:43;3.83;;;2.47;;
10801;SDS011;5453;50.852;7.102;2022-08-25T11:10:21;4.00;;;2.50;;
10801;SDS011;5453;50.852;7.102;2022-08-25T11:13:01;3.88;;;2.42;;
10801;SDS011;5453;50.852;7.102;2022-08-25T11:15:44;5.45;;;3.15;;
10801;SDS011;5453;50.852;7.102;2022-08-25T11:18:24;2.75;;;2.10;;
10801;SDS011;5453;50.852;7.102;2022-08-25T11:21:02;4.72;;;2.42;;
10801;SDS011;5453;50.852;7.102;2022-08-25T11:23:42;4.35;;;2.47;;
10801;SDS011;5453;50.852;7.102;2022-08-25T11:26:23;2.60;;;2.13;;
10801;SDS011;5453;50.852;7.102;2022-08-25T11:29:04;3.45;;;2.35;;
10801;SDS011;5453;50.852;7.102;2022-08-25T11:31:48;3.35;;;2.50;;
10801;SDS011;5453;50.852;7.102;2022-08-25T11:34:23;2.70;;;2.17;;
10801;SDS011;5453;50.852;7.102;2022-08-25T11:36:59;3.90;;;2.40;;
10801;SDS011;5453;50.852;7.102;2022-08-25T11:39:54;2.63;;;2.15;;
10801;SDS011;5453;50.852;7.102;2022-08-25T11:42:57;3.67;;;2.33;;
10801;SDS011;5453;50.852;7.102;2022-08-25T11:48:43;3.10;;;2.17;;
10801;SDS011;5453;50.852;7.102;2022-08-25T11:51:29;2.90;;;2.22;;
10801;SDS011;5453;50.852;7.102;2022-08-25T11:54:15;5.07;;;2.20;;
10801;SDS011;5453;50.852;7.102;2022-08-25T11:56:55;2.63;;;2.25;;
10801;SDS011;5453;50.852;7.102;2022-08-25T12:13:03;4.35;;;2.30;;
10801;SDS011;5453;50.852;7.102;2022-08-25T12:15:56;3.75;;;2.47;;
10801;SDS011;5453;50.852;7.102;2022-08-25T12:18:39;4.10;;;2.30;;
10801;SDS011;5453;50.852;7.102;2022-08-25T12:24:06;2.65;;;2.00;;
10801;SDS011;5453;50.852;7.102;2022-08-25T12:26:49;2.35;;;1.83;;
10801;SDS011;5453;50.852;7.102;2022-08-25T12:29:29;2.90;;;2.08;;
10801;SDS011;5453;50.852;7.102;2022-08-25T12:32:20;3.88;;;2.42;;
10801;SDS011;5453;50.852;7.102;2022-08-25T12:35:12;4.30;;;2.35;;
10801;SDS011;5453;50.852;7.102;2022-08-25T12:38:01;3.88;;;2.38;;
10801;SDS011;5453;50.852;7.102;2022-08-25T12:40:52;3.15;;;2.10;;
10801;SDS011;5453;50.852;7.102;2022-08-25T12:43:33;2.75;;;1.88;;
10801;SDS011;5453;50.852;7.102;2022-08-25T12:49:14;2.55;;;1.90;;
10801;SDS011;5453;50.852;7.102;2022-08-25T12:52:05;3.00;;;2.17;;
10801;SDS011;5453;50.852;7.102;2022-08-25T12:54:45;3.45;;;2.28;;
10801;SDS011;5453;50.852;7.102;2022-08-25T12:57:28;3.03;;;1.90;;
10801;SDS011;5453;50.852;7.102;2022-08-25T13:00:13;3.25;;;2.42;;
10801;SDS011;5453;50.852;7.102;2022-08-25T13:06:14;3.50;;;2.20;;
10801;SDS011;5453;50.852;7.102;2022-08-25T13:09:12;3.83;;;2.20;;
10801;SDS011;5453;50.852;7.102;2022-08-25T13:12:41;3.08;;;1.80;;
10801;SDS011;5453;50.852;7.102;2022-08-25T13:15:26;3.75;;;2.10;;
10801;SDS011;5453;50.852;7.102;2022-08-25T13:18:20;2.83;;;1.85;;
10801;SDS011;5453;50.852;7.102;2022-08-25T13:21:01;3.67;;;1.92;;
10801;SDS011;5453;50.852;7.102;2022-08-25T13:23:39;3.20;;;2.17;;
10801;SDS011;5453;50.852;7.102;2022-08-25T13:26:20;3.55;;;2.30;;
10801;SDS011;5453;50.852;7.102;2022-08-25T13:28:56;3.30;;;2.17;;
10801;SDS011;5453;50.852;7.102;2022-08-25T13:31:31;2.78;;;2.13;;
10801;SDS011;5453;50.852;7.102;2022-08-25T13:34:07;3.15;;;1.90;;
10801;SDS011;5453;50.852;7.102;2022-08-25T13:36:49;2.63;;;2.03;;
10801;SDS011;5453;50.852;7.102;2022-08-25T13:39:41;2.92;;;1.83;;
10801;SDS011;5453;50.852;7.102;2022-08-25T13:42:15;2.13;;;1.77;;
10801;SDS011;5453;50.852;7.102;2022-08-25T13:44:48;2.53;;;1.77;;
10801;SDS011;5453;50.852;7.102;2022-08-25T13:47:31;2.70;;;2.15;;
10801;SDS011;5453;50.852;7.102;2022-08-25T13:50:20;2.25;;;2.03;;
10801;SDS011;5453;50.852;7.102;2022-08-25T13:53:02;2.33;;;1.80;;
10801;SDS011;5453;50.852;7.102;2022-08-25T13:55:38;3.03;;;1.70;;
10801;SDS011;5453;50.852;7.102;2022-08-25T13:58:23;2.50;;;1.75;;
10801;SDS011;5453;50.852;7.102;2022-08-25T14:01:01;2.55;;;1.80;;
10801;SDS011;5453;50.852;7.102;2022-08-25T14:03:41;3.17;;;1.90;;
10801;SDS011;5453;50.852;7.102;2022-08-25T14:06:19;2.38;;;1.77;;
10801;SDS011;5453;50.852;7.102;2022-08-25T14:09:07;2.50;;;1.85;;
10801;SDS011;5453;50.852;7.102;2022-08-25T14:11:46;2.00;;;1.80;;
10801;SDS011;5453;50.852;7.102;2022-08-25T14:14:30;2.25;;;1.75;;
10801;SDS011;5453;50.852;7.102;2022-08-25T14:17:06;2.28;;;1.67;;
10801;SDS011;5453;50.852;7.102;2022-08-25T14:19:43;2.25;;;1.52;;
10801;SDS011;5453;50.852;7.102;2022-08-25T14:22:18;2.90;;;2.17;;
10801;SDS011;5453;50.852;7.102;2022-08-25T14:24:50;3.90;;;2.10;;
10801;SDS011;5453;50.852;7.102;2022-08-25T14:27:26;3.22;;;1.85;;
10801;SDS011;5453;50.852;7.102;2022-08-25T14:30:00;2.10;;;1.63;;
10801;SDS011;5453;50.852;7.102;2022-08-25T14:32:33;3.10;;;1.60;;
10801;SDS011;5453;50.852;7.102;2022-08-25T14:35:06;3.05;;;1.63;;
10801;SDS011;5453;50.852;7.102;2022-08-25T14:37:40;2.63;;;1.90;;
10801;SDS011;5453;50.852;7.102;2022-08-25T14:40:13;2.13;;;1.58;;
10801;SDS011;5453;50.852;7.102;2022-08-25T14:42:48;3.03;;;2.00;;
10801;SDS011;5453;50.852;7.102;2022-08-25T14:45:22;1.85;;;1.52;;
10801;SDS011;5453;50.852;7.102;2022-08-25T14:47:56;2.65;;;1.67;;
10801;SDS011;5453;50.852;7.102;2022-08-25T14:50:36;2.90;;;1.73;;
10801;SDS011;5453;50.852;7.102;2022-08-25T14:53:11;2.58;;;1.83;;
10801;SDS011;5453;50.852;7.102;2022-08-25T14:55:43;2.40;;;1.45;;
10801;SDS011;5453;50.852;7.102;2022-08-25T14:58:18;1.70;;;1.55;;
10801;SDS011;5453;50.852;7.102;2022-08-25T15:00:53;3.05;;;1.52;;
10801;SDS011;5453;50.852;7.102;2022-08-25T15:03:26;2.60;;;1.80;;
10801;SDS011;5453;50.852;7.102;2022-08-25T15:06:04;1.55;;;1.30;;
10801;SDS011;5453;50.852;7.102;2022-08-25T15:08:38;1.52;;;1.27;;
10801;SDS011;5453;50.852;7.102;2022-08-25T15:11:28;2.78;;;1.63;;
10801;SDS011;5453;50.852;7.102;2022-08-25T15:14:03;1.90;;;1.63;;
10801;SDS011;5453;50.852;7.102;2022-08-25T15:16:42;2.42;;;1.48;;
10801;SDS011;5453;50.852;7.102;2022-08-25T15:19:19;2.97;;;2.00;;
10801;SDS011;5453;50.852;7.102;2022-08-25T15:21:54;2.80;;;1.80;;
10801;SDS011;5453;50.852;7.102;2022-08-25T15:24:27;1.60;;;1.30;;
10801;SDS011;5453;50.852;7.102;2022-08-25T15:27:00;2.10;;;1.65;;
10801;SDS011;5453;50.852;7.102;2022-08-25T15:29:36;3.10;;;1.80;;
10801;SDS011;5453;50.852;7.102;2022-08-25T15:32:11;2.50;;;1.90;;
10801;SDS011;5453;50.852;7.102;2022-08-25T15:34:45;1.75;;;1.45;;
10801;SDS011;5453;50.852;7.102;2022-08-25T15:37:21;2.65;;;1.90;;
10801;SDS011;5453;50.852;7.102;2022-08-25T15:39:54;4.28;;;2.05;;
10801;SDS011;5453;50.852;7.102;2022-08-25T15:42:26;2.08;;;1.73;;
10801;SDS011;5453;50.852;7.102;2022-08-25T15:45:03;2.00;;;1.70;;
10801;SDS011;5453;50.852;7.102;2022-08-25T15:47:40;2.22;;;1.73;;
10801;SDS011;5453;50.852;7.102;2022-08-25T15:50:13;2.33;;;1.80;;
10801;SDS011;5453;50.852;7.102;2022-08-25T15:52:48;2.80;;;1.75;;
10801;SDS011;5453;50.852;7.102;2022-08-25T15:55:21;2.92;;;1.77;;
10801;SDS011;5453;50.852;7.102;2022-08-25T15:57:53;2.55;;;1.75;;
10801;SDS011;5453;50.852;7.102;2022-08-25T16:00:26;2.90;;;1.83;;
10801;SDS011;5453;50.852;7.102;2022-08-25T16:03:01;3.25;;;1.90;;
10801;SDS011;5453;50.852;7.102;2022-08-25T16:05:34;3.05;;;1.90;;
10801;SDS011;5453;50.852;7.102;2022-08-25T16:08:09;2.45;;;1.90;;
10801;SDS011;5453;50.852;7.102;2022-08-25T16:13:14;3.08;;;1.60;;
10801;SDS011;5453;50.852;7.102;2022-08-25T16:15:47;3.55;;;1.73;;
10801;SDS011;5453;50.852;7.102;2022-08-25T16:18:22;2.38;;;1.70;;
10801;SDS011;5453;50.852;7.102;2022-08-25T16:20:56;1.92;;;1.48;;
10801;SDS011;5453;50.852;7.102;2022-08-25T16:23:29;3.25;;;1.77;;
10801;SDS011;5453;50.852;7.102;2022-08-25T16:28:37;3.50;;;1.60;;
10801;SDS011;5453;50.852;7.102;2022-08-25T16:31:12;2.30;;;1.52;;
10801;SDS011;5453;50.852;7.102;2022-08-25T16:33:49;3.47;;;1.80;;
10801;SDS011;5453;50.852;7.102;2022-08-25T16:36:23;2.55;;;1.60;;
10801;SDS011;5453;50.852;7.102;2022-08-25T16:38:57;2.17;;;1.50;;
10801;SDS011;5453;50.852;7.102;2022-08-25T16:41:30;3.13;;;1.50;;
10801;SDS011;5453;50.852;7.102;2022-08-25T16:46:38;2.45;;;1.80;;
10801;SDS011;5453;50.852;7.102;2022-08-25T16:49:14;2.13;;;1.60;;
10801;SDS011;5453;50.852;7.102;2022-08-25T16:51:48;2.25;;;1.60;;